Time;durP1;ratioP1;P1;durP2;ratioP2;P2;SDS_P1;SDS_P2;PMS_P1;PMS_P2;Temp;Humidity;BMP_temperature;BMP_pressure;BME280_temperature;BME280_humidity;BME280_pressure;Samples;Min_cycle;Max_cycle;Signal;HPM_P1;HPM_P2
2021/12/28 00:00:26;;;;;;;30.10;19.85;;;5.00;99.90;;;;;;5127753;27;20042;-82
2021/12/28 00:02:52;;;;;;;31.05;18.90;;;5.10;99.90;;;;;;5113320;27;20074;-81
2021/12/28 00:05:20;;;;;;;35.60;19.88;;;5.10;99.90;;;;;;5116344;27;20098;-84
2021/12/28 00:07:47;;;;;;;33.40;20.13;;;5.10;99.90;;;;;;5115561;27;20459;-82
2021/12/28 00:10:15;;;;;;;36.42;21.35;;;5.10;99.90;;;;;;5117410;27;20043;-81
2021/12/28 00:12:42;;;;;;;33.70;20.80;;;5.10;99.90;;;;;;5133863;27;20514;-81
2021/12/28 00:18:02;;;;;;;36.55;20.75;;;5.10;99.90;;;;;;5133302;27;20046;-82
2021/12/28 00:20:48;;;;;;;;;;;5.20;99.90;;;;;;5117951;27;20043;-81
2021/12/28 00:23:19;;;;;;;37.47;21.17;;;5.10;99.90;;;;;;5134684;27;19919;-81
2021/12/28 00:25:51;;;;;;;38.97;21.77;;;5.20;99.90;;;;;;5152268;27;20047;-81
2021/12/28 00:28:17;;;;;;;43.10;23.60;;;5.20;99.90;;;;;;5132782;27;20038;-83
2021/12/28 00:30:43;;;;;;;40.58;22.45;;;5.20;99.90;;;;;;5100497;27;20054;-81
2021/12/28 00:33:10;;;;;;;40.00;22.65;;;5.20;99.90;;;;;;5099396;28;20048;-81
2021/12/28 00:35:39;;;;;;;42.80;22.88;;;5.20;99.90;;;;;;5083524;27;20125;-82
2021/12/28 00:38:07;;;;;;;46.67;23.63;;;5.20;99.90;;;;;;5116485;27;20054;-82
2021/12/28 00:40:34;;;;;;;46.67;25.27;;;5.20;99.90;;;;;;5133203;27;20035;-85
2021/12/28 00:43:00;;;;;;;41.92;23.98;;;5.20;99.90;;;;;;5095852;28;20059;-81
2021/12/28 00:45:27;;;;;;;46.03;24.63;;;5.20;99.90;;;;;;5133343;27;20515;-81
2021/12/28 00:47:53;;;;;;;47.22;25.40;;;5.20;99.90;;;;;;5112958;28;20637;-82
2021/12/28 00:50:19;;;;;;;42.13;23.92;;;5.20;99.90;;;;;;5110728;27;20047;-83
2021/12/28 00:52:46;;;;;;;45.58;25.83;;;5.20;99.90;;;;;;5133392;27;20047;-81
2021/12/28 00:55:14;;;;;;;44.97;24.40;;;5.20;99.90;;;;;;5116454;27;20026;-81
2021/12/28 00:57:39;;;;;;;47.40;25.40;;;5.20;99.90;;;;;;5112854;28;20047;-82
2021/12/28 01:00:09;;;;;;;50.20;26.45;;;5.20;99.90;;;;;;5125285;27;20392;-82
2021/12/28 01:02:35;;;;;;;51.00;26.75;;;5.30;99.90;;;;;;5119478;28;20095;-84
2021/12/28 01:05:02;;;;;;;52.67;26.85;;;5.20;99.90;;;;;;5111440;27;20050;-81
2021/12/28 01:07:28;;;;;;;56.65;28.38;;;5.30;99.90;;;;;;5129283;27;20074;-81
2021/12/28 01:09:53;;;;;;;46.53;25.38;;;5.30;99.90;;;;;;5098042;27;20127;-81
2021/12/28 01:12:19;;;;;;;54.95;26.77;;;5.30;99.90;;;;;;5112618;28;20180;-80
2021/12/28 01:14:45;;;;;;;58.70;27.33;;;5.30;99.90;;;;;;5105053;27;20046;-80
2021/12/28 01:17:11;;;;;;;56.10;29.58;;;5.30;99.90;;;;;;5125664;27;20121;-81
2021/12/28 01:19:37;;;;;;;63.08;29.38;;;5.30;99.90;;;;;;5136480;27;20184;-85
2021/12/28 01:22:03;;;;;;;58.63;27.15;;;5.30;99.90;;;;;;5099927;27;20073;-80
2021/12/28 01:24:30;;;;;;;51.63;26.63;;;5.30;99.90;;;;;;5072212;27;20046;-81
2021/12/28 01:26:57;;;;;;;62.70;29.58;;;5.30;99.90;;;;;;5128479;27;20046;-82
2021/12/28 01:29:23;;;;;;;58.60;28.83;;;5.40;99.90;;;;;;5137574;27;20118;-80
2021/12/28 01:31:49;;;;;;;72.22;30.75;;;5.40;99.90;;;;;;5115228;27;20146;-79
2021/12/28 01:34:15;;;;;;;69.00;30.13;;;5.40;99.90;;;;;;5120266;27;20051;-81
2021/12/28 01:36:40;;;;;;;69.05;31.58;;;5.40;99.90;;;;;;5101802;27;20045;-86
2021/12/28 01:39:07;;;;;;;67.25;30.38;;;5.50;99.90;;;;;;5137824;27;20046;-80
2021/12/28 01:41:33;;;;;;;85.80;32.83;;;5.50;99.90;;;;;;5120965;27;20054;-80
2021/12/28 01:44:04;;;;;;;100.97;35.97;;;5.40;99.90;;;;;;5136775;27;20058;-80
2021/12/28 01:46:30;;;;;;;76.05;32.13;;;5.50;99.90;;;;;;5137654;27;20099;-80
2021/12/28 01:48:56;;;;;;;77.50;33.85;;;5.50;99.90;;;;;;5119902;27;20051;-82
2021/12/28 01:51:24;;;;;;;83.40;34.53;;;5.50;99.90;;;;;;5136464;27;20051;-82
2021/12/28 01:53:52;;;;;;;78.97;33.42;;;5.60;99.90;;;;;;5136279;27;20035;-82
2021/12/28 01:56:34;;;;;;;119.53;39.25;;;5.50;99.90;;;;;;5137267;27;20495;-82
2021/12/28 01:59:00;;;;;;;103.00;37.13;;;5.60;99.90;;;;;;5136705;27;20107;-83
2021/12/28 02:01:27;;;;;;;127.65;39.70;;;5.70;99.90;;;;;;5119839;27;20122;-81
2021/12/28 02:03:53;;;;;;;109.97;38.38;;;5.70;99.90;;;;;;5119775;27;20129;-83
2021/12/28 02:06:19;;;;;;;138.23;41.80;;;5.70;99.90;;;;;;5099040;27;20446;-82
2021/12/28 02:08:45;;;;;;;103.13;38.25;;;5.70;99.90;;;;;;5111122;27;20120;-84
2021/12/28 02:11:13;;;;;;;146.35;42.25;;;5.80;99.90;;;;;;5110798;27;20039;-83
2021/12/28 02:13:39;;;;;;;109.47;38.45;;;5.80;99.90;;;;;;5085461;27;20049;-84
2021/12/28 02:16:06;;;;;;;111.05;38.75;;;5.80;99.90;;;;;;5135653;27;20045;-83
2021/12/28 02:18:34;;;;;;;120.13;40.20;;;5.80;99.90;;;;;;5119134;27;20187;-81
2021/12/28 02:21:02;;;;;;;114.97;37.55;;;5.80;99.90;;;;;;5118691;27;20047;-83
2021/12/28 02:23:28;;;;;;;167.95;42.72;;;5.90;99.90;;;;;;5103007;27;20053;-82
2021/12/28 02:25:54;;;;;;;189.60;45.83;;;5.80;99.90;;;;;;5100311;27;20046;-81
2021/12/28 02:28:20;;;;;;;168.48;43.22;;;5.90;99.90;;;;;;5135923;27;20081;-81
2021/12/28 02:30:49;;;;;;;111.43;39.15;;;5.80;99.90;;;;;;5154753;27;20125;-82
2021/12/28 02:33:17;;;;;;;123.07;36.95;;;5.90;99.90;;;;;;5118989;27;20127;-81
2021/12/28 02:35:43;;;;;;;176.32;42.85;;;5.90;99.90;;;;;;5118975;27;20038;-82
2021/12/28 02:38:10;;;;;;;268.20;47.05;;;5.80;99.90;;;;;;5115335;27;20179;-81
2021/12/28 02:40:38;;;;;;;200.70;46.55;;;5.90;99.90;;;;;;5118729;27;20052;-81
2021/12/28 02:43:05;;;;;;;194.73;45.97;;;5.90;99.90;;;;;;5118057;27;20082;-81
2021/12/28 02:45:35;;;;;;;124.95;39.80;;;5.80;99.90;;;;;;5094368;27;20049;-82
2021/12/28 02:48:01;;;;;;;137.40;38.35;;;5.80;99.90;;;;;;5112799;27;20050;-83
2021/12/28 02:50:39;;;;;;;168.25;45.03;;;5.80;99.90;;;;;;5117418;27;20050;-81
2021/12/28 02:53:06;;;;;;;180.95;45.55;;;5.80;99.90;;;;;;5118677;27;20051;-82
2021/12/28 02:55:33;;;;;;;231.02;49.28;;;5.80;99.90;;;;;;5135894;27;20054;-81
2021/12/28 02:58:11;;;;;;;95.85;37.72;;;5.90;99.90;;;;;;5118207;27;20507;-83
2021/12/28 03:00:47;;;;;;;131.45;40.05;;;5.80;99.90;;;;;;5135774;27;20039;-81
2021/12/28 03:03:17;;;;;;;110.13;37.45;;;5.80;99.90;;;;;;5118257;27;20069;-83
2021/12/28 03:05:46;;;;;;;128.10;39.92;;;5.80;99.90;;;;;;5135357;27;20403;-82
2021/12/28 03:08:14;;;;;;;92.18;35.75;;;5.90;99.90;;;;;;5135150;27;20727;-82
2021/12/28 03:10:41;;;;;;;123.85;38.75;;;5.80;99.90;;;;;;5101674;27;20038;-81
2021/12/28 03:13:15;;;;;;;132.88;40.42;;;5.80;99.90;;;;;;5135315;27;20497;-82
2021/12/28 03:15:41;;;;;;;163.15;43.58;;;5.70;99.90;;;;;;5135437;27;20418;-82
2021/12/28 03:18:06;;;;;;;165.35;45.53;;;5.90;99.90;;;;;;5132887;27;20050;-82
2021/12/28 03:20:32;;;;;;;169.68;44.58;;;5.90;99.90;;;;;;5069214;27;20142;-83
2021/12/28 03:22:58;;;;;;;191.55;46.47;;;5.90;99.90;;;;;;5107617;27;20042;-82
2021/12/28 03:25:23;;;;;;;185.85;46.00;;;6.00;99.90;;;;;;5100242;27;20046;-82
2021/12/28 03:27:49;;;;;;;198.82;46.50;;;6.00;99.90;;;;;;5101370;27;20487;-82
2021/12/28 03:30:17;;;;;;;201.48;48.55;;;6.00;99.90;;;;;;5117211;27;20180;-81
2021/12/28 03:32:46;;;;;;;150.18;43.70;;;6.10;99.90;;;;;;5117783;27;20034;-82
2021/12/28 03:35:14;;;;;;;159.23;43.22;;;6.10;99.90;;;;;;5135104;27;20055;-82
2021/12/28 03:37:41;;;;;;;173.05;45.70;;;6.10;99.90;;;;;;5118206;27;20499;-82
2021/12/28 03:40:09;;;;;;;145.35;44.15;;;6.30;99.90;;;;;;5133967;27;20047;-82
2021/12/28 03:42:35;;;;;;;124.30;39.08;;;6.30;99.90;;;;;;5134836;27;20133;-82
2021/12/28 03:45:02;;;;;;;113.03;37.83;;;6.30;99.90;;;;;;5117387;27;20060;-83
2021/12/28 03:47:27;;;;;;;190.38;45.92;;;6.30;99.90;;;;;;5117881;27;20042;-82
2021/12/28 03:49:53;;;;;;;156.30;43.53;;;6.30;99.90;;;;;;5100527;27;20047;-83
2021/12/28 03:52:19;;;;;;;126.60;39.00;;;6.30;99.90;;;;;;5066440;27;20039;-84
2021/12/28 03:54:44;;;;;;;118.40;38.78;;;6.30;99.90;;;;;;5099250;27;20117;-82
2021/12/28 03:57:10;;;;;;;204.80;46.60;;;6.30;99.90;;;;;;5096688;27;20065;-83
2021/12/28 03:59:36;;;;;;;169.77;44.03;;;6.30;99.90;;;;;;5097219;27;20050;-83
2021/12/28 04:02:02;;;;;;;120.13;39.67;;;6.30;99.90;;;;;;5098113;27;20491;-86
2021/12/28 04:04:27;;;;;;;141.15;40.85;;;6.40;99.90;;;;;;5111657;27;20047;-84
2021/12/28 04:06:53;;;;;;;137.95;40.10;;;6.30;99.90;;;;;;5106824;27;20043;-82
2021/12/28 04:09:33;;;;;;;148.45;41.00;;;6.40;99.90;;;;;;5100632;27;20042;-83
2021/12/28 04:11:59;;;;;;;139.27;38.92;;;6.40;99.90;;;;;;5101344;27;20053;-83
2021/12/28 04:14:25;;;;;;;158.35;43.05;;;6.40;99.90;;;;;;5107097;27;20039;-83
2021/12/28 04:16:51;;;;;;;114.57;36.78;;;6.40;99.90;;;;;;5113960;27;20129;-83
2021/12/28 04:19:16;;;;;;;153.98;41.90;;;6.40;99.90;;;;;;5105499;28;20586;-85
2021/12/28 04:21:42;;;;;;;191.23;44.50;;;6.40;99.90;;;;;;5057630;28;20055;-85
2021/12/28 04:24:08;;;;;;;164.07;44.15;;;6.40;99.90;;;;;;5087225;28;20127;-82
2021/12/28 04:26:34;;;;;;;195.65;46.05;;;6.30;99.90;;;;;;5091568;28;20051;-84
2021/12/28 04:28:59;;;;;;;278.77;51.67;;;6.30;99.90;;;;;;5097236;28;20051;-84
2021/12/28 04:31:25;;;;;;;327.50;53.78;;;6.30;99.90;;;;;;5110381;28;20031;-83
2021/12/28 04:33:51;;;;;;;433.55;59.75;;;6.30;99.90;;;;;;5074776;28;20075;-84
2021/12/28 04:36:19;;;;;;;321.90;50.50;;;6.20;99.90;;;;;;5090588;28;20075;-82
2021/12/28 04:38:45;;;;;;;470.35;60.03;;;6.10;99.90;;;;;;5091037;28;20096;-83
2021/12/28 04:41:12;;;;;;;298.27;51.30;;;6.10;99.90;;;;;;5101826;28;20044;-83
2021/12/28 04:43:38;;;;;;;294.15;48.60;;;6.00;99.90;;;;;;5073714;28;20040;-83
2021/12/28 04:46:05;;;;;;;157.38;40.20;;;6.00;99.90;;;;;;5094547;28;20044;-83
2021/12/28 04:48:33;;;;;;;185.63;43.17;;;6.00;99.90;;;;;;5083477;28;20059;-84
2021/12/28 04:50:58;;;;;;;179.43;41.00;;;6.00;99.90;;;;;;5073729;28;20055;-84
2021/12/28 04:53:24;;;;;;;122.05;35.05;;;6.00;99.90;;;;;;5099714;28;20124;-84
2021/12/28 04:55:51;;;;;;;109.80;34.17;;;6.00;99.90;;;;;;5082297;28;20039;-84
2021/12/28 04:58:18;;;;;;;99.20;31.45;;;6.00;99.90;;;;;;5097102;28;20051;-84
2021/12/28 05:00:46;;;;;;;147.23;35.97;;;6.00;99.90;;;;;;5070159;28;20048;-83
2021/12/28 05:03:13;;;;;;;119.45;33.03;;;6.00;99.90;;;;;;5088350;28;20067;-84
2021/12/28 05:05:45;;;;;;;106.53;31.83;;;6.00;99.90;;;;;;5081243;28;20075;-83
2021/12/28 05:08:12;;;;;;;99.60;31.77;;;6.00;99.90;;;;;;5104670;28;20043;-88
2021/12/28 05:10:38;;;;;;;114.35;35.53;;;6.00;99.90;;;;;;5079335;28;20047;-83
2021/12/28 05:13:04;;;;;;;113.07;33.90;;;6.00;99.90;;;;;;5076001;28;20123;-85
2021/12/28 05:15:30;;;;;;;94.60;29.17;;;6.00;99.90;;;;;;5061084;28;20048;-83
2021/12/28 05:17:56;;;;;;;110.43;31.75;;;6.00;99.90;;;;;;5102340;28;20053;-85
2021/12/28 05:20:22;;;;;;;90.18;30.05;;;5.90;99.90;;;;;;5124166;27;20047;-84
2021/12/28 05:22:48;;;;;;;96.35;30.23;;;6.00;99.90;;;;;;5133984;27;20158;-85
2021/12/28 05:25:14;;;;;;;85.30;28.25;;;6.00;99.90;;;;;;5116976;27;20043;-86
2021/12/28 05:27:39;;;;;;;88.45;28.98;;;6.00;99.90;;;;;;5117023;27;20054;-84
2021/12/28 05:30:08;;;;;;;96.00;31.80;;;6.00;99.90;;;;;;5104094;27;20430;-84
2021/12/28 05:32:33;;;;;;;80.13;30.35;;;6.00;99.90;;;;;;5134092;27;20486;-82
2021/12/28 05:34:59;;;;;;;86.10;30.23;;;5.90;99.90;;;;;;5133590;27;20100;-83
2021/12/28 05:37:25;;;;;;;99.05;31.77;;;6.00;99.90;;;;;;5133702;27;20084;-84
2021/12/28 05:39:51;;;;;;;85.28;29.70;;;6.00;99.90;;;;;;5117249;27;20043;-85
2021/12/28 05:42:16;;;;;;;90.25;30.25;;;5.90;99.90;;;;;;5133867;27;20051;-87
2021/12/28 05:44:42;;;;;;;71.35;26.95;;;5.90;99.90;;;;;;5134073;27;20104;-83
2021/12/28 05:47:08;;;;;;;71.85;27.95;;;6.00;99.90;;;;;;5116948;27;20079;-82
2021/12/28 05:49:33;;;;;;;84.85;30.40;;;5.90;99.90;;;;;;5099397;27;20073;-83
2021/12/28 05:51:59;;;;;;;76.22;28.48;;;6.00;99.90;;;;;;5099257;27;20519;-83
2021/12/28 05:54:25;;;;;;;92.55;28.95;;;6.00;99.90;;;;;;5116180;27;20103;-84
2021/12/28 05:56:51;;;;;;;67.15;26.95;;;5.90;99.90;;;;;;5116882;27;20047;-83
2021/12/28 05:59:17;;;;;;;73.57;27.00;;;6.00;99.90;;;;;;5078733;27;20055;-84
2021/12/28 06:01:43;;;;;;;70.68;27.58;;;6.00;99.90;;;;;;5114164;27;20043;-82
2021/12/28 06:04:09;;;;;;;66.35;26.20;;;6.00;99.90;;;;;;5111111;28;20047;-83
2021/12/28 06:06:34;;;;;;;71.63;26.50;;;6.00;99.90;;;;;;5079126;27;20051;-81
2021/12/28 06:09:00;;;;;;;71.60;24.85;;;6.00;99.90;;;;;;5132869;27;20403;-82
2021/12/28 06:11:26;;;;;;;61.67;24.05;;;5.80;99.90;;;;;;5133116;27;20051;-81
2021/12/28 06:13:52;;;;;;;74.20;26.33;;;5.70;99.90;;;;;;5116228;27;20070;-82
2021/12/28 06:16:18;;;;;;;71.00;24.45;;;5.50;99.90;;;;;;5115787;27;20373;-82
2021/12/28 06:18:43;;;;;;;59.88;23.73;;;5.50;99.90;;;;;;5111382;28;20087;-81
2021/12/28 06:21:10;;;;;;;58.13;22.50;;;5.40;99.90;;;;;;5128609;27;20066;-82
2021/12/28 06:23:36;;;;;;;59.28;22.75;;;5.40;99.90;;;;;;5115197;27;20053;-81
2021/12/28 06:26:02;;;;;;;69.97;24.63;;;5.40;99.90;;;;;;5116174;27;20251;-82
2021/12/28 06:28:28;;;;;;;63.67;22.80;;;5.40;99.90;;;;;;5098877;27;20173;-82
2021/12/28 06:30:53;;;;;;;66.13;23.38;;;5.50;99.90;;;;;;5091227;28;20510;-82
2021/12/28 06:33:20;;;;;;;66.05;23.27;;;5.50;99.90;;;;;;5123336;27;20044;-83
2021/12/28 06:35:47;;;;;;;65.65;22.95;;;5.60;99.90;;;;;;5085928;27;20515;-81
2021/12/28 06:38:13;;;;;;;65.38;23.92;;;5.60;99.90;;;;;;5109345;27;20045;-82
2021/12/28 06:40:38;;;;;;;66.18;23.35;;;5.60;99.90;;;;;;5131909;27;20483;-83
2021/12/28 06:43:04;;;;;;;61.17;22.77;;;5.60;99.90;;;;;;5108318;28;20088;-80
2021/12/28 06:45:30;;;;;;;56.85;22.15;;;5.60;99.90;;;;;;5098240;27;20051;-80
2021/12/28 06:47:56;;;;;;;55.70;21.15;;;5.70;99.90;;;;;;5100742;27;20050;-79
2021/12/28 06:50:21;;;;;;;52.97;21.95;;;5.70;99.90;;;;;;5135121;27;20100;-82
2021/12/28 06:52:47;;;;;;;50.17;19.77;;;5.70;99.90;;;;;;5084559;28;20138;-82
2021/12/28 06:55:13;;;;;;;57.35;21.83;;;5.80;99.90;;;;;;5115429;27;20442;-82
2021/12/28 06:57:39;;;;;;;59.17;19.90;;;5.70;99.90;;;;;;5115820;27;20039;-83
2021/12/28 07:00:09;;;;;;;48.28;19.67;;;5.80;99.90;;;;;;5123626;27;20059;-82
2021/12/28 07:02:35;;;;;;;49.72;20.00;;;5.80;99.90;;;;;;5106438;27;20088;-82
2021/12/28 07:05:01;;;;;;;49.55;19.05;;;5.80;99.90;;;;;;5109639;28;20035;-80
2021/12/28 07:07:27;;;;;;;48.72;19.10;;;5.90;99.90;;;;;;5085254;28;20051;-88
2021/12/28 07:09:52;;;;;;;50.25;20.13;;;5.90;99.90;;;;;;5129198;27;20035;-82
2021/12/28 07:12:18;;;;;;;45.92;17.75;;;6.00;99.90;;;;;;5111536;28;20698;-81
2021/12/28 07:14:44;;;;;;;54.72;19.40;;;5.90;99.90;;;;;;5094671;28;20473;-81
2021/12/28 07:17:09;;;;;;;54.67;18.50;;;6.00;99.90;;;;;;5094825;28;20426;-82
2021/12/28 07:19:35;;;;;;;49.88;18.63;;;6.00;99.90;;;;;;5110302;27;20055;-80
2021/12/28 07:22:01;;;;;;;50.95;18.60;;;6.00;99.90;;;;;;5106804;27;20044;-83
2021/12/28 07:24:26;;;;;;;45.13;17.55;;;6.00;99.90;;;;;;5125601;27;20056;-82
2021/12/28 07:26:53;;;;;;;45.92;17.65;;;6.00;99.90;;;;;;5084993;28;20054;-82
2021/12/28 07:29:19;;;;;;;43.83;17.02;;;6.00;99.90;;;;;;5091917;28;20052;-83
2021/12/28 07:31:45;;;;;;;43.85;18.73;;;5.90;99.90;;;;;;5083638;28;20040;-82
2021/12/28 07:34:11;;;;;;;40.55;16.63;;;5.90;99.90;;;;;;5091354;28;20090;-81
2021/12/28 07:36:36;;;;;;;47.47;16.92;;;5.90;99.90;;;;;;5091272;28;20477;-81
2021/12/28 07:39:04;;;;;;;37.55;15.60;;;5.90;99.90;;;;;;5091914;28;20044;-82
2021/12/28 07:41:31;;;;;;;42.20;17.02;;;5.90;99.90;;;;;;5100036;28;20048;-88
2021/12/28 07:43:57;;;;;;;38.22;16.33;;;5.90;99.90;;;;;;5084893;28;20052;-80
2021/12/28 07:46:23;;;;;;;38.67;16.75;;;5.90;99.90;;;;;;5085034;28;20054;-80
2021/12/28 07:48:49;;;;;;;35.28;15.68;;;5.90;99.90;;;;;;5094347;28;20127;-79
2021/12/28 07:51:15;;;;;;;37.03;14.82;;;5.90;99.90;;;;;;5106890;28;20054;-79
2021/12/28 07:53:40;;;;;;;34.67;15.00;;;5.90;99.90;;;;;;5111590;28;20043;-79
2021/12/28 07:56:06;;;;;;;34.33;14.38;;;6.00;99.90;;;;;;5100523;28;20044;-78
2021/12/28 07:58:32;;;;;;;30.50;13.73;;;5.90;99.90;;;;;;5092614;28;20078;-86
2021/12/28 08:00:58;;;;;;;32.13;13.88;;;5.90;99.90;;;;;;5109082;27;20161;-78
2021/12/28 08:03:24;;;;;;;29.92;13.55;;;5.90;99.90;;;;;;5097875;28;20429;-81
2021/12/28 08:05:51;;;;;;;35.45;13.50;;;6.00;99.90;;;;;;5107274;28;20053;-78
2021/12/28 08:08:17;;;;;;;29.60;13.57;;;5.90;99.90;;;;;;5104749;28;20052;-79
2021/12/28 08:10:43;;;;;;;45.53;16.10;;;6.00;99.90;;;;;;5089530;28;20044;-81
2021/12/28 08:13:09;;;;;;;33.17;13.27;;;6.00;99.90;;;;;;5109894;28;20078;-82
2021/12/28 08:15:35;;;;;;;30.20;13.13;;;6.00;99.90;;;;;;5092775;27;20119;-86
2021/12/28 08:18:03;;;;;;;37.75;14.10;;;5.90;99.90;;;;;;5128213;27;20130;-83
2021/12/28 08:20:29;;;;;;;24.27;12.52;;;5.90;99.90;;;;;;5130019;27;20126;-83
2021/12/28 08:22:56;;;;;;;31.90;12.45;;;5.80;99.90;;;;;;5107861;28;20195;-81
2021/12/28 08:25:23;;;;;;;34.38;12.85;;;5.70;99.90;;;;;;5080742;27;20043;-82
2021/12/28 08:27:50;;;;;;;26.92;12.25;;;5.70;99.90;;;;;;5112626;28;20525;-83
2021/12/28 08:30:17;;;;;;;28.63;12.00;;;5.70;99.90;;;;;;5112041;28;20039;-83
2021/12/28 08:32:43;;;;;;;29.75;12.27;;;5.70;99.90;;;;;;5107406;28;20042;-81
2021/12/28 08:35:11;;;;;;;29.60;12.68;;;5.80;99.90;;;;;;5114172;28;20043;-81
2021/12/28 08:37:36;;;;;;;29.98;12.82;;;5.80;99.90;;;;;;5113547;28;20492;-81
2021/12/28 08:40:04;;;;;;;31.05;12.23;;;5.70;99.90;;;;;;5114027;28;20042;-83
2021/12/28 08:42:30;;;;;;;27.70;11.60;;;5.80;99.90;;;;;;5110265;28;20051;-79
2021/12/28 08:44:55;;;;;;;23.15;12.50;;;5.70;99.90;;;;;;5106457;28;20549;-79
2021/12/28 08:47:26;;;;;;;25.88;11.68;;;5.80;99.90;;;;;;5103691;28;20407;-82
2021/12/28 08:49:56;;;;;;;27.88;12.27;;;5.80;99.90;;;;;;5129423;28;20058;-81
2021/12/28 08:52:23;;;;;;;26.08;11.02;;;5.80;99.90;;;;;;5113304;28;20039;-84
2021/12/28 08:54:49;;;;;;;34.45;12.00;;;5.90;99.90;;;;;;5130501;28;20043;-82
2021/12/28 08:57:16;;;;;;;24.38;11.55;;;5.90;99.90;;;;;;5130855;28;20090;-81
2021/12/28 08:59:41;;;;;;;26.13;11.18;;;5.80;99.90;;;;;;5129944;28;20453;-85
2021/12/28 09:02:08;;;;;;;32.65;12.07;;;5.90;99.90;;;;;;5085216;28;20075;-81
2021/12/28 09:04:36;;;;;;;28.38;11.05;;;5.90;99.90;;;;;;5115769;28;20088;-82
2021/12/28 09:07:03;;;;;;;29.55;10.70;;;6.00;99.90;;;;;;5093661;28;20053;-84
2021/12/28 09:09:28;;;;;;;30.70;12.25;;;6.00;99.90;;;;;;5112347;28;20092;-81
2021/12/28 09:11:54;;;;;;;30.05;12.23;;;6.00;99.90;;;;;;5130783;28;20047;-82
2021/12/28 09:14:19;;;;;;;24.38;10.57;;;6.10;99.90;;;;;;5113117;28;20050;-82
2021/12/28 09:16:45;;;;;;;23.85;10.07;;;6.20;99.90;;;;;;5113565;28;20094;-83
2021/12/28 09:19:11;;;;;;;29.88;10.52;;;6.30;99.90;;;;;;5104280;28;20139;-81
2021/12/28 09:21:37;;;;;;;23.85;9.95;;;6.30;99.90;;;;;;5096250;28;20129;-82
2021/12/28 09:24:03;;;;;;;29.35;9.55;;;6.30;99.90;;;;;;5112030;28;20124;-81
2021/12/28 09:26:29;;;;;;;28.73;9.85;;;6.50;99.90;;;;;;5109527;28;20463;-83
2021/12/28 09:28:55;;;;;;;28.33;10.20;;;6.50;99.90;;;;;;5130262;28;20088;-86
2021/12/28 09:31:20;;;;;;;29.65;10.20;;;6.50;99.90;;;;;;5088592;28;20058;-83
2021/12/28 09:33:46;;;;;;;25.75;9.93;;;6.60;99.90;;;;;;5126266;28;20567;-84
2021/12/28 09:36:14;;;;;;;28.92;10.80;;;6.60;99.90;;;;;;5125337;28;20112;-80
2021/12/28 09:38:42;;;;;;;27.17;10.18;;;6.70;99.90;;;;;;5098635;27;20104;-79
2021/12/28 09:41:08;;;;;;;27.80;9.93;;;6.70;99.90;;;;;;5084014;27;20062;-80
2021/12/28 09:43:34;;;;;;;27.98;9.45;;;6.80;99.90;;;;;;5118563;27;20047;-80
2021/12/28 09:45:59;;;;;;;26.88;9.30;;;6.90;99.90;;;;;;5101160;27;20403;-80
2021/12/28 09:48:25;;;;;;;21.67;9.55;;;6.90;99.90;;;;;;5135316;27;20155;-80
2021/12/28 09:50:51;;;;;;;22.17;8.88;;;7.00;99.90;;;;;;5112154;27;20491;-80
2021/12/28 09:53:17;;;;;;;22.63;7.97;;;7.00;99.90;;;;;;5113212;28;20047;-81
2021/12/28 09:55:43;;;;;;;24.20;8.15;;;7.10;99.90;;;;;;5113731;28;20411;-82
2021/12/28 09:58:09;;;;;;;21.23;8.32;;;7.10;99.90;;;;;;5094385;28;20778;-82
2021/12/28 10:00:36;;;;;;;23.35;8.13;;;7.10;99.90;;;;;;5129005;27;20043;-80
2021/12/28 10:03:02;;;;;;;25.55;8.60;;;7.10;99.90;;;;;;5113869;27;20039;-81
2021/12/28 10:05:29;;;;;;;25.77;8.77;;;7.10;99.90;;;;;;5116714;27;20137;-82
2021/12/28 10:07:57;;;;;;;22.77;7.97;;;7.10;99.90;;;;;;5088143;27;20063;-81
2021/12/28 10:10:33;;;;;;;21.42;7.93;;;7.10;99.90;;;;;;5107047;27;20039;-81
2021/12/28 10:13:02;;;;;;;20.23;7.63;;;7.10;99.90;;;;;;5095901;28;20051;-83
2021/12/28 10:15:30;;;;;;;23.35;6.97;;;7.10;99.90;;;;;;5112235;27;20123;-81
2021/12/28 10:18:00;;;;;;;21.38;7.38;;;7.20;99.90;;;;;;5133352;27;20046;-83
2021/12/28 10:20:36;;;;;;;17.33;6.95;;;7.20;99.90;;;;;;5098833;27;20059;-82
2021/12/28 10:23:05;;;;;;;23.33;7.40;;;7.20;99.90;;;;;;5105654;27;20051;-84
2021/12/28 10:25:37;;;;;;;23.73;7.50;;;7.20;99.90;;;;;;5133491;27;20547;-82
2021/12/28 10:28:09;;;;;;;27.25;8.60;;;7.20;99.90;;;;;;5132714;27;20135;-82
2021/12/28 10:30:41;;;;;;;25.38;7.78;;;7.20;99.90;;;;;;5133419;27;20051;-82
2021/12/28 10:33:13;;;;;;;19.98;7.70;;;7.20;99.90;;;;;;5132640;27;20467;-81
2021/12/28 10:35:53;;;;;;;22.92;8.00;;;7.30;99.90;;;;;;5116135;27;20078;-81
2021/12/28 10:38:22;;;;;;;26.40;9.10;;;7.30;99.90;;;;;;5135035;27;20055;-79
2021/12/28 10:40:51;;;;;;;22.27;9.13;;;7.20;99.90;;;;;;5133387;27;20104;-80
2021/12/28 10:43:23;;;;;;;27.27;8.13;;;7.20;99.90;;;;;;5115954;27;20047;-80
2021/12/28 10:46:01;;;;;;;25.60;8.80;;;7.20;99.90;;;;;;5127841;27;20385;-81
2021/12/28 10:48:28;;;;;;;25.25;8.20;;;7.30;99.90;;;;;;5117632;27;20034;-82
2021/12/28 10:51:07;;;;;;;21.33;8.73;;;7.30;99.90;;;;;;5132876;27;20496;-87
2021/12/28 10:53:52;;;;;;;27.25;9.07;;;7.20;99.90;;;;;;5114695;27;20077;-81
2021/12/28 10:56:17;;;;;;;26.05;9.07;;;7.30;99.90;;;;;;5114840;27;20105;-81
2021/12/28 10:58:46;;;;;;;19.88;9.18;;;7.20;99.90;;;;;;5114830;27;20083;-80
2021/12/28 11:01:14;;;;;;;30.10;10.10;;;7.30;99.90;;;;;;5132178;27;20054;-82
2021/12/28 11:03:45;;;;;;;26.77;10.15;;;7.30;99.90;;;;;;5127877;27;20051;-81
2021/12/28 11:06:15;;;;;;;27.50;10.48;;;7.30;99.90;;;;;;5115396;27;20046;-80
2021/12/28 11:08:44;;;;;;;28.27;12.90;;;7.30;99.90;;;;;;5132701;27;20103;-81
2021/12/28 11:11:13;;;;;;;30.23;11.45;;;7.40;99.90;;;;;;5131965;27;20059;-80
2021/12/28 11:13:39;;;;;;;24.80;11.07;;;7.40;99.90;;;;;;5132646;27;20043;-83
2021/12/28 11:16:09;;;;;;;21.55;9.85;;;7.30;99.90;;;;;;5111034;27;20047;-82
2021/12/28 11:18:38;;;;;;;33.95;11.73;;;7.30;99.90;;;;;;5126232;27;20050;-83
2021/12/28 11:21:13;;;;;;;30.80;10.68;;;7.30;99.90;;;;;;5130304;27;20115;-86
2021/12/28 11:23:39;;;;;;;23.13;11.52;;;7.30;99.90;;;;;;5131156;27;20035;-85
2021/12/28 11:26:10;;;;;;;38.85;14.05;;;7.30;99.90;;;;;;5123226;27;20039;-82
2021/12/28 11:28:37;;;;;;;35.83;12.90;;;7.30;99.90;;;;;;5129801;27;20117;-81
2021/12/28 11:31:19;;;;;;;30.00;11.93;;;7.40;99.90;;;;;;5115863;27;20478;-80
2021/12/28 11:33:58;;;;;;;41.70;14.10;;;7.40;99.90;;;;;;5150487;27;20515;-80
2021/12/28 11:36:33;;;;;;;40.40;15.90;;;7.40;99.90;;;;;;5130838;27;20046;-82
2021/12/28 11:39:00;;;;;;;37.30;13.75;;;7.40;99.90;;;;;;5133186;27;20255;-80
2021/12/28 11:41:27;;;;;;;38.30;13.88;;;7.40;99.90;;;;;;5144149;27;20074;-81
2021/12/28 11:43:55;;;;;;;31.85;12.93;;;7.40;99.90;;;;;;5133583;27;20103;-82
2021/12/28 11:46:22;;;;;;;30.33;12.80;;;7.50;99.90;;;;;;5131066;27;20049;-82
2021/12/28 11:48:48;;;;;;;27.98;12.25;;;7.50;99.90;;;;;;5113369;27;20034;-82
2021/12/28 11:51:14;;;;;;;35.25;12.77;;;7.50;99.90;;;;;;5150641;27;20042;-81
2021/12/28 11:53:46;;;;;;;27.17;11.75;;;7.50;99.90;;;;;;5148835;27;20039;-82
2021/12/28 11:56:15;;;;;;;33.92;13.32;;;7.50;99.90;;;;;;5133147;27;20118;-82
2021/12/28 11:58:52;;;;;;;29.92;11.55;;;7.50;99.90;;;;;;5108431;27;20058;-82
2021/12/28 12:01:39;;;;;;;31.92;11.52;;;7.50;99.90;;;;;;5148637;27;20050;-81
2021/12/28 12:04:34;;;;;;;34.38;12.82;;;7.50;99.90;;;;;;5111477;27;20089;-86
2021/12/28 12:07:05;;;;;;;24.92;11.25;;;7.50;99.90;;;;;;5130986;27;20082;-84
2021/12/28 12:09:33;;;;;;;30.85;10.95;;;7.50;99.90;;;;;;5112770;27;20058;-81
2021/12/28 12:12:21;;;;;;;25.58;11.57;;;7.60;99.90;;;;;;5123747;27;20046;-80
2021/12/28 12:14:57;;;;;;;26.77;10.95;;;7.60;99.90;;;;;;5133966;27;20107;-79
2021/12/28 12:17:34;;;;;;;27.52;11.23;;;7.60;99.90;;;;;;5134037;27;20054;-80
2021/12/28 12:20:16;;;;;;;26.40;10.65;;;7.60;99.90;;;;;;5114535;27;20061;-80
2021/12/28 12:22:53;;;;;;;27.83;10.90;;;7.60;99.90;;;;;;5114492;28;20104;-81
2021/12/28 12:25:22;;;;;;;22.98;11.25;;;7.60;99.90;;;;;;5130401;27;20046;-80
2021/12/28 12:28:02;;;;;;;25.42;11.80;;;7.60;99.90;;;;;;5134598;27;20117;-80
2021/12/28 12:30:28;;;;;;;32.40;11.98;;;7.70;99.90;;;;;;5098610;28;20059;-82
2021/12/28 12:33:02;;;;;;;29.85;12.60;;;7.70;99.90;;;;;;5126969;27;20041;-81
2021/12/28 12:35:39;;;;;;;32.05;13.40;;;7.70;99.90;;;;;;5130400;27;20078;-81
2021/12/28 12:38:14;;;;;;;25.67;13.32;;;7.70;99.90;;;;;;5116974;27;20046;-79
2021/12/28 12:40:59;;;;;;;26.50;12.80;;;7.70;99.90;;;;;;5119573;27;20050;-81